AirNav  
 
 431 users online  

2KY0 Jane Todd Crawford Hospital Heliport
Greensburg, Kentucky, USA

GOING TO GREENSBURG?


FAA INFORMATION EFFECTIVE 09 NOVEMBER 2017

Location

FAA Identifier: 2KY0
Lat/Long: 37-14-35.7600N / 085-29-34.8700W
37-14.596000N / 085-29.581167W
37.2432667 / -85.4930194
(estimated)
Elevation: 625 ft. / 190 m (estimated)
Variation: 03W (1995)
From city: 1 mile SE of GREENSBURG, KY
Time zone: UTC -6 (UTC -5 during Daylight Saving Time)
Zip code: 42743

Heliport Operations

Heliport use: Private use, MEDICAL USE.
Activation date: 06/1998
Control tower: no
ARTCC: INDIANAPOLIS CENTER
FSS: LOUISVILLE FLIGHT SERVICE STATION
Attendance: UNATNDD
Wind indicator: lighted
Segmented circle: no

Heliport Communications

WX AWOS-3 at AAS (11 nm NE): 121.125 (270-789-1985)

Nearby radio navigation aids

VOR radial/distance  VOR name  Freq  Var
EWOr159/24.9NEW HOPE VOR/DME110.8001E

Heliport Services

Runway Information

Helipad H1

Dimensions: 24 x 24 ft. / 7 x 7 m
Surface: concrete
Latitude: 37-14.596000N
Longitude: 085-29.581167W
Elevation: 625.0 ft.
Traffic pattern: leftleft

Heliport Ownership and Management from official FAA records

Ownership: Privately-owned
Owner: JANE TODD CRAWFORD HOSPITAL
202-206 MILBY STREET
GREENSBURG, KY 42743
Phone 270-932-4211
Manager: HENRY SHUFFETT
PO BOX 313
GREENSBURG, KY 42743
Phone 270-405-1299

Heliport Operational Statistics

Aircraft based on the field: 1
Helicopters: 1
    

Additional Remarks

A52-H1 25 FT POWER LINES 105 FT SSE; 40 FT TREES 110 FT N; 130 FT ANT TWR 350 YARDS W.

Instrument Procedures

There are no published instrument procedures at 2KY0.

Some nearby airports with instrument procedures:

KAAS - Taylor County Airport (11 nm NE)
K24 - Russell County Airport (23 nm SE)
KGLW - Glasgow Municipal Airport (25 nm SW)
6I2 - Lebanon Springfield Airport-George Hoerter Field (26 nm NE)
KTZV - Tompkinsville-Monroe County Airport (32 nm S)
 
Loc | Ops | Rwys | IFR | FBO | Links
Com | Nav | Svcs | Stats | Notes


 
Area around 2KY0 (Jane Todd Crawford Hospital Heliport)
 
Road maps at: MapQuest Bing Google
 
Aerial photo
No photo
 
Sectional chart

 
Airport distance calculator
Flying to Jane Todd Crawford Hospital Heliport? Find the distance to fly.

From to 2KY0

Sunrise and sunset
Times for 25-Nov-2017
 Local
(UTC-6)
 Zulu
(UTC)
Morning civil twilight06:0412:04
Sunrise06:3212:32
Sunset16:2622:26
Evening civil twilight16:5422:54

Current date and time
Zulu (UTC)  25-Nov-2017 12:11:33
Local (UTC-6)  25-Nov-2017 06:11:33
 
METAR
KGLW 
25nm SW 
251155Z AUTO 23003KT 10SM CLR 08/M01 A2989 RMK AO2 T00821010 10110 20076
K6I2 
26nm NE 
251155Z AUTO 20009KT 10SM CLR 09/M01 A2987 RMK AO2
KEKX 
34nm NW 
251155Z AUTO 23005KT 10SM CLR 07/M02 A2986 RMK AO2 T00701019 10097 20070
KEKQ 
38nm SE 
251156Z AUTO 25014KT 10SM CLR 11/02 A2991 RMK AO2 SLP155 6//// 7//// T01110017 10117 20011 53005 PNO $
KDVK 
40nm NE 
251155Z AUTO 23012KT 10SM CLR 08/00 A2987 RMK AO2
KSME 
43nm E 
251155Z AUTO 23003KT 10SM CLR 10/01 A2990 RMK AO2
KFTK 
45nm NW 
251156Z AUTO 23007KT 10SM CLR 08/M01 A2984 RMK AO2 SLP109 T00821013 10107 20082 52013
KBWG 
47nm W 
251153Z AUTO 22005KT 10SM CLR 10/M01 A2990 RMK AO2 SLP122 T01001011 10106 20078 53010
TAF
KSME 
43nm E 
251120Z 2512/2612 24009G16KT P6SM BKN120 FM251900 29010G15KT P6SM SCT060 FM252300 33005KT P6SM FEW200
KFTK 
45nm NW 
250900Z 2509/2615 21009KT 9999 SCT100 SCT210 WS020/25050KT QNH2979INS BECMG 2516/2517 30010G15KT 9999 SCT090 QNH2989INS BECMG 2523/2524 33006KT 9999 SKC QNH3006INS TX13/2520Z TN03/2608Z
KBWG 
47nm W 
251120Z 2512/2612 23004KT P6SM BKN250 FM251500 27009KT P6SM SCT250 FM251800 33009KT P6SM FEW050 FM260000 32003KT P6SM SKC
NOTAMs
Click for the latest NOTAMs
NOTAMs are issued by the DoD/FAA and will open in a separate window not controlled by AirNav.

 

 
 

Would you like to see your business listed on this page?

 If your business provides an interesting product or service to pilots, flight crews, aircraft, or users of the Jane Todd Crawford Hospital Heliport, you should consider listing it here.  To start the listing process, click on the button below
 
Add a business
 

Other Pages about Jane Todd Crawford Hospital Heliport

Update a link
 
Copyright © AirNav, LLC. All rights reserved. Privacy Policy  Contact